Time;durP1;ratioP1;P1;durP2;ratioP2;P2;SDS_P1;SDS_P2;PMS_P1;PMS_P2;Temp;Humidity;BMP_temperature;BMP_pressure;BME280_temperature;BME280_humidity;BME280_pressure;Samples;Min_cycle;Max_cycle;Signal;HPM_P1;HPM_P2
2021/09/18 00:02:08;;;;;;;;;;;;;;;-144.99;90.96;52448.09;5058043;28;20343;-76
2021/09/18 00:04:35;;;;;;;;;;;;;;;-144.99;91.03;52450.13;5058227;28;19988;-75
2021/09/18 00:07:02;;;;;;;;;;;;;;;-144.99;91.21;52468.47;5059015;28;19982;-77
2021/09/18 00:09:28;;;;;;;;;;;;;;;-144.99;91.40;52435.88;5057958;28;19976;-72
2021/09/18 00:11:55;;;;;;;;;;;;;;;-144.99;91.51;52448.09;5058734;28;20443;-73
2021/09/18 00:14:21;;;;;;;;;;;;;;;-144.99;91.77;52444.03;5058445;28;19982;-74
2021/09/18 00:16:48;;;;;;;;;;;;;;;-144.99;91.89;52439.94;5070722;22;20003;-74
2021/09/18 00:19:15;;;;;;;;;;;;;;;-144.99;91.82;52452.16;5068239;28;19987;-72
2021/09/18 00:21:43;;;;;;;;;;;;;;;-144.99;92.07;52399.19;5063512;28;19979;-71
2021/09/18 00:24:09;;;;;;;;;;;;;;;-144.99;92.50;52472.56;5067072;28;19983;-73
2021/09/18 00:26:36;;;;;;;;;;;;;;;-144.99;92.90;52456.25;5068010;28;19998;-72
2021/09/18 00:29:03;;;;;;;;;;;;;;;-144.99;93.01;52468.47;5067736;28;19980;-72
2021/09/18 00:31:30;;;;;;;;;;;;;;;-144.99;93.07;52435.88;5063143;28;20184;-70
2021/09/18 00:33:56;;;;;;;;;;;;;;;-144.99;93.09;52415.47;5059539;28;21718;-72
2021/09/18 00:36:23;;;;;;;;;;;;;;;-144.99;93.26;52480.72;5060985;28;20000;-73
2021/09/18 00:38:51;;;;;;;;;;;;;;;-144.99;93.49;52488.84;5061124;28;21487;-74
2021/09/18 00:41:17;;;;;;;;;;;;;;;-144.99;94.06;52456.25;5062433;28;19980;-73
2021/09/18 00:43:48;;;;;;;;;;;;;;;-144.99;94.27;52488.84;5061311;28;19973;-73
2021/09/18 00:46:15;;;;;;;;;;;;;;;-144.99;94.26;52452.16;5061102;28;19996;-73
2021/09/18 00:48:41;;;;;;;;;;;;;;;-144.99;94.53;52429.75;5060989;28;19950;-73
2021/09/18 00:51:08;;;;;;;;;;;;;;;-144.99;94.74;52456.25;5063728;28;20083;-73
2021/09/18 00:53:34;;;;;;;;;;;;;;;-144.99;94.72;52476.63;5070368;28;19976;-72
2021/09/18 00:56:02;;;;;;;;;;;;;;;-144.99;95.27;52439.94;5059729;28;19996;-73
2021/09/18 00:58:28;;;;;;;;;;;;;;;-144.99;95.18;52472.56;5058210;28;20384;-73
2021/09/18 01:00:55;;;;;;;;;;;;;;;-144.99;95.27;52439.94;5062572;28;19990;-74
2021/09/18 01:03:21;;;;;;;;;;;;;;;-144.99;95.35;52448.09;5063202;28;19995;-74
2021/09/18 01:05:47;;;;;;;;;;;;;;;-144.99;95.58;52444.03;4717598;28;10000550;-73
2021/09/18 01:08:14;;;;;;;;;;;;;;;-144.99;95.73;52472.56;5058785;28;19996;-72
2021/09/18 01:10:41;;;;;;;;;;;;;;;-144.99;95.73;52474.59;5067093;28;19978;-74
2021/09/18 01:13:11;;;;;;;;;;;;;;;-144.99;95.78;52472.56;5061948;28;20051;-73
2021/09/18 01:15:38;;;;;;;;;;;;;;;-144.99;95.72;52456.25;5063063;28;19972;-73
2021/09/18 01:18:05;;;;;;;;;;;;;;;-144.99;95.76;52452.16;5062765;28;20018;-73
2021/09/18 01:20:32;;;;;;;;;;;;;;;-144.99;95.82;52472.56;5055667;28;19979;-74
2021/09/18 01:23:00;;;;;;;;;;;;;;;-144.99;95.84;52431.78;5060656;28;19932;-74
2021/09/18 01:25:30;;;;;;;;;;;;;;;-144.99;96.08;52419.56;5061367;28;19982;-74
2021/09/18 01:27:57;;;;;;;;;;;;;;;-144.99;96.33;52431.78;5064718;28;19991;-73
2021/09/18 01:30:24;;;;;;;;;;;;;;;-144.99;96.54;52431.78;5058490;28;19982;-73
2021/09/18 01:32:51;;;;;;;;;;;;;;;-144.99;96.31;52448.09;5067313;28;20015;-74
2021/09/18 01:35:18;;;;;;;;;;;;;;;-144.99;96.59;52415.47;5067015;28;19980;-73
2021/09/18 01:37:46;;;;;;;;;;;;;;;-144.99;96.71;52427.72;5069326;28;20119;-73
2021/09/18 01:40:14;;;;;;;;;;;;;;;-144.99;96.77;52407.31;5066757;28;19962;-73
2021/09/18 01:42:44;;;;;;;;;;;;;;;-144.99;97.01;52448.09;5062023;28;20071;-73
2021/09/18 01:45:11;;;;;;;;;;;;;;;-144.99;97.12;52431.78;5064370;28;19975;-73
2021/09/18 01:47:45;;;;;;;;;;;;;;;-144.99;97.25;52454.22;5065555;28;20042;-73
2021/09/18 01:50:26;;;;;;;;;;;;;;;-144.99;97.40;52444.03;5064279;28;19975;-73
2021/09/18 01:52:53;;;;;;;;;;;;;;;-144.99;97.74;52476.63;5061633;28;19976;-73
2021/09/18 01:55:20;;;;;;;;;;;;;;;-144.99;97.78;52472.56;5064102;28;19971;-73
2021/09/18 01:57:50;;;;;;;;;;;;;;;-144.99;97.94;52448.09;5061897;28;20086;-72
2021/09/18 02:00:17;;;;;;;;;;;;;;;-144.99;97.76;52466.44;5060483;28;19982;-73
2021/09/18 02:02:44;;;;;;;;;;;;;;;-144.99;97.86;52444.03;5067044;28;19971;-72
2021/09/18 02:05:11;;;;;;;;;;;;;;;-144.99;97.94;52439.94;5066456;28;19975;-73
2021/09/18 02:07:37;;;;;;;;;;;;;;;-144.99;98.11;52435.88;5059439;28;20250;-73
2021/09/18 02:10:04;;;;;;;;;;;;;;;-144.99;98.13;52435.88;5064604;28;19975;-72
2021/09/18 02:12:31;;;;;;;;;;;;;;;-144.99;98.19;52427.72;5063749;28;20482;-72
2021/09/18 02:14:58;;;;;;;;;;;;;;;-144.99;98.47;52435.88;5067026;28;20017;-73
2021/09/18 02:17:25;;;;;;;;;;;;;;;-144.99;98.35;52435.88;5063522;28;19990;-72
2021/09/18 02:19:51;;;;;;;;;;;;;;;-144.99;98.82;52403.25;5065039;28;19980;-73
2021/09/18 02:22:18;;;;;;;;;;;;;;;-144.99;98.82;52460.31;5068205;28;19976;-73
2021/09/18 02:24:44;;;;;;;;;;;;;;;-144.99;99.13;52448.09;5069726;28;19998;-74
2021/09/18 02:27:10;;;;;;;;;;;;;;;-144.99;99.36;52452.16;5065003;28;19996;-73
2021/09/18 02:29:37;;;;;;;;;;;;;;;-144.99;99.46;52431.78;5058792;28;19987;-73
2021/09/18 02:32:05;;;;;;;;;;;;;;;-144.99;99.75;52431.78;5058855;28;20346;-74
2021/09/18 02:34:31;;;;;;;;;;;;;;;-144.99;100.00;52460.31;5062964;28;19986;-75
2021/09/18 02:36:58;;;;;;;;;;;;;;;-144.99;100.00;52435.88;5068125;28;19995;-74
2021/09/18 02:39:25;;;;;;;;;;;;;;;-144.99;100.00;52474.59;5062355;28;20409;-74
2021/09/18 02:41:51;;;;;;;;;;;;;;;-144.99;100.00;52441.97;5065403;28;19972;-73
2021/09/18 02:44:17;;;;;;;;;;;;;;;-144.99;100.00;52415.47;5065601;28;19972;-74
2021/09/18 02:46:44;;;;;;;;;;;;;;;-144.99;100.00;52437.91;5065825;28;19924;-73
2021/09/18 02:49:12;;;;;;;;;;;;;;;-144.99;100.00;52439.94;5061911;28;20081;-74
2021/09/18 02:51:38;;;;;;;;;;;;;;;-144.99;100.00;52452.16;5060984;28;20112;-73
2021/09/18 02:54:04;;;;;;;;;;;;;;;-144.99;100.00;52437.91;5062318;28;20172;-74
2021/09/18 02:56:31;;;;;;;;;;;;;;;-144.99;100.00;52444.03;5064292;28;19988;-75
2021/09/18 02:58:58;;;;;;;;;;;;;;;-144.99;100.00;52437.91;5064439;28;19992;-73
2021/09/18 03:01:24;;;;;;;;;;;;;;;-144.99;100.00;52446.06;5060880;28;20139;-75
2021/09/18 03:03:51;;;;;;;;;;;;;;;-144.99;100.00;52391.03;5065026;28;20427;-74
2021/09/18 03:06:18;;;;;;;;;;;;;;;-144.99;100.00;52452.16;5060647;28;20114;-75
2021/09/18 03:08:47;;;;;;;;;;;;;;;-144.99;100.00;52450.13;5059001;28;20434;-75
2021/09/18 03:11:14;;;;;;;;;;;;;;;-144.99;100.00;52415.47;5065575;28;20072;-75
2021/09/18 03:13:41;;;;;;;;;;;;;;;-144.99;100.00;52456.25;5057829;28;20357;-75
2021/09/18 03:16:07;;;;;;;;;;;;;;;-144.99;100.00;52433.81;5061094;28;20000;-75
2021/09/18 03:18:34;;;;;;;;;;;;;;;-144.99;100.00;52464.41;5062575;28;20075;-75
2021/09/18 03:21:00;;;;;;;;;;;;;;;-144.99;100.00;52393.06;5066328;28;19979;-75
2021/09/18 03:23:28;;;;;;;;;;;;;;;-144.99;100.00;52391.03;5071876;28;20349;-76
2021/09/18 03:25:55;;;;;;;;;;;;;;;-144.99;100.00;52439.94;5066211;28;19991;-77
2021/09/18 03:28:21;;;;;;;;;;;;;;;-144.99;100.00;52435.88;5059761;28;19973;-76
2021/09/18 03:30:49;;;;;;;;;;;;;;;-144.99;100.00;52409.38;5070466;28;19972;-75
2021/09/18 03:33:16;;;;;;;;;;;;;;;-144.99;100.00;52431.78;5065826;28;20447;-76
2021/09/18 03:35:42;;;;;;;;;;;;;;;-144.99;100.00;52452.16;5065276;28;19973;-75
2021/09/18 03:38:09;;;;;;;;;;;;;;;-144.99;100.00;52448.09;5064382;28;19992;-75
2021/09/18 03:40:37;;;;;;;;;;;;;;;-144.99;100.00;52452.16;5066951;28;20213;-75
2021/09/18 03:43:03;;;;;;;;;;;;;;;-144.99;100.00;52407.31;5062220;28;19977;-76
2021/09/18 03:45:29;;;;;;;;;;;;;;;-144.99;100.00;52433.81;5061720;28;20027;-76
2021/09/18 03:47:56;;;;;;;;;;;;;;;-144.99;100.00;52446.06;5064738;28;20066;-75
2021/09/18 03:50:22;;;;;;;;;;;;;;;-144.99;100.00;52415.47;5069461;28;20575;-75
2021/09/18 03:52:49;;;;;;;;;;;;;;;-144.99;100.00;52446.06;5059300;28;20075;-75
2021/09/18 03:55:15;;;;;;;;;;;;;;;-144.99;100.00;52431.78;5068839;28;19981;-75
2021/09/18 03:57:43;;;;;;;;;;;;;;;-144.99;100.00;52374.72;5066003;28;19997;-75
2021/09/18 04:00:10;;;;;;;;;;;;;;;-144.99;100.00;52452.16;5061134;28;19976;-75
2021/09/18 04:02:36;;;;;;;;;;;;;;;-144.99;100.00;52429.75;5065185;28;19984;-76
2021/09/18 04:05:03;;;;;;;;;;;;;;;-144.99;100.00;52472.56;5064437;28;20484;-75
2021/09/18 04:07:29;;;;;;;;;;;;;;;-144.99;100.00;52448.09;5062871;28;20222;-74
2021/09/18 04:09:56;;;;;;;;;;;;;;;-144.99;100.00;52468.47;5071529;28;19987;-75
2021/09/18 04:12:22;;;;;;;;;;;;;;;-144.99;100.00;52417.53;5067515;28;20000;-75
2021/09/18 04:14:50;;;;;;;;;;;;;;;-144.99;100.00;52415.47;5066901;28;20055;-75
2021/09/18 04:17:16;;;;;;;;;;;;;;;-144.99;100.00;52427.72;5065608;28;20427;-76
2021/09/18 04:19:43;;;;;;;;;;;;;;;-144.99;100.00;52407.31;5069099;28;19979;-75
2021/09/18 04:22:09;;;;;;;;;;;;;;;-144.99;100.00;52417.53;5066096;28;20062;-77
2021/09/18 04:24:36;;;;;;;;;;;;;;;-144.99;100.00;52439.94;5073061;28;19972;-76
2021/09/18 04:27:03;;;;;;;;;;;;;;;-144.99;100.00;52444.03;5071831;28;20002;-76
2021/09/18 04:29:31;;;;;;;;;;;;;;;-144.99;100.00;52421.59;5066810;28;20357;-77
2021/09/18 04:31:58;;;;;;;;;;;;;;;-144.99;100.00;52419.56;5068687;28;19977;-78
2021/09/18 04:34:25;;;;;;;;;;;;;;;-144.99;100.00;52415.47;5072851;28;20062;-77
2021/09/18 04:36:51;;;;;;;;;;;;;;;-144.99;100.00;52411.41;5067452;28;20154;-77
2021/09/18 04:39:18;;;;;;;;;;;;;;;-144.99;100.00;52460.31;5068286;28;19993;-77
2021/09/18 04:41:44;;;;;;;;;;;;;;;-144.99;100.00;52399.19;5071987;28;20068;-78
2021/09/18 04:44:11;;;;;;;;;;;;;;;-144.99;100.00;52393.06;5076469;28;20412;-77
2021/09/18 04:46:37;;;;;;;;;;;;;;;-144.99;100.00;52425.66;5072372;28;20000;-77
2021/09/18 04:49:05;;;;;;;;;;;;;;;-144.99;100.00;52501.09;5071667;28;19973;-77
2021/09/18 04:51:32;;;;;;;;;;;;;;;-144.99;100.00;52423.63;5073965;28;20096;-74
2021/09/18 04:53:58;;;;;;;;;;;;;;;-144.99;100.00;52433.81;5075867;28;19987;-75
2021/09/18 04:56:24;;;;;;;;;;;;;;;-144.99;100.00;52435.88;5075228;28;20012;-74
2021/09/18 04:58:51;;;;;;;;;;;;;;;-144.99;100.00;52421.59;5072498;28;20099;-74
2021/09/18 05:01:17;;;;;;;;;;;;;;;-144.99;100.00;52431.78;5077479;28;19977;-74
2021/09/18 05:03:44;;;;;;;;;;;;;;;-144.99;100.00;52431.78;5078780;28;19999;-74
2021/09/18 05:06:11;;;;;;;;;;;;;;;-144.99;100.00;52407.31;5073398;28;19992;-74
2021/09/18 05:08:38;;;;;;;;;;;;;;;-144.99;100.00;52448.09;5067136;28;20632;-74
2021/09/18 05:11:04;;;;;;;;;;;;;;;-144.99;100.00;52427.72;5072419;28;20155;-74
2021/09/18 05:13:31;;;;;;;;;;;;;;;-144.99;100.00;52419.56;5069267;28;19976;-74
2021/09/18 05:15:57;;;;;;;;;;;;;;;-144.99;100.00;52407.31;5073217;28;19996;-76
2021/09/18 05:18:23;;;;;;;;;;;;;;;-144.99;100.00;52448.09;5069451;28;19999;-77
2021/09/18 05:20:50;;;;;;;;;;;;;;;-144.99;100.00;52439.94;5084150;28;19973;-77
2021/09/18 05:23:18;;;;;;;;;;;;;;;-144.99;100.00;52403.25;5077968;28;19973;-74
2021/09/18 05:25:44;;;;;;;;;;;;;;;-144.99;100.00;52431.78;5076525;28;19981;-73
2021/09/18 05:28:10;;;;;;;;;;;;;;;-144.99;100.00;52435.88;5067988;28;19977;-77
2021/09/18 05:30:37;;;;;;;;;;;;;;;-144.99;100.00;52423.63;5071751;28;20060;-75
2021/09/18 05:33:03;;;;;;;;;;;;;;;-144.99;100.00;52423.63;5069186;28;19981;-76
2021/09/18 05:35:30;;;;;;;;;;;;;;;-144.99;100.00;52386.94;5069424;28;20438;-74
2021/09/18 05:37:56;;;;;;;;;;;;;;;-144.99;100.00;52435.88;5069102;28;19993;-74
2021/09/18 05:40:26;;;;;;;;;;;;;;;-144.99;100.00;52460.31;5063673;28;19977;-75
2021/09/18 05:42:52;;;;;;;;;;;;;;;-144.99;100.00;52419.56;5073934;28;20026;-74
2021/09/18 05:45:19;;;;;;;;;;;;;;;-144.99;100.00;52427.72;5069032;28;20633;-76
2021/09/18 05:47:45;;;;;;;;;;;;;;;-144.99;100.00;52450.13;5061994;28;19996;-73
2021/09/18 05:50:11;;;;;;;;;;;;;;;-144.99;100.00;52419.56;5067726;28;19984;-74
2021/09/18 05:52:38;;;;;;;;;;;;;;;-144.99;100.00;52417.53;5059433;28;20014;-75
2021/09/18 05:55:05;;;;;;;;;;;;;;;-144.99;100.00;52431.78;5057935;28;20072;-75
2021/09/18 05:57:33;;;;;;;;;;;;;;;-144.99;100.00;52393.06;5066165;28;19993;-75
2021/09/18 05:59:59;;;;;;;;;;;;;;;-144.99;100.00;52439.94;5059532;28;19997;-75
2021/09/18 06:02:25;;;;;;;;;;;;;;;-144.99;100.00;52378.78;5059681;28;19983;-75
2021/09/18 06:04:54;;;;;;;;;;;;;;;-144.99;100.00;52399.19;5065432;28;19973;-75
2021/09/18 06:07:21;;;;;;;;;;;;;;;-144.99;100.00;52431.78;5061970;28;20387;-74
2021/09/18 06:09:47;;;;;;;;;;;;;;;-144.99;100.00;52431.78;5065140;28;19973;-75
2021/09/18 06:12:14;;;;;;;;;;;;;;;-144.99;100.00;52382.88;5068581;28;19981;-74
2021/09/18 06:14:42;;;;;;;;;;;;;;;-144.99;100.00;52415.47;5060453;28;20432;-75
2021/09/18 06:17:08;;;;;;;;;;;;;;;-144.99;100.00;52433.81;5101941;22;20536;-72
2021/09/18 06:19:34;;;;;;;;;;;;;;;-144.99;100.00;52354.34;5079620;28;19999;-73
2021/09/18 06:22:01;;;;;;;;;;;;;;;-144.99;100.00;52374.72;5080312;28;19976;-70
2021/09/18 06:24:28;;;;;;;;;;;;;;;-144.99;100.00;52386.94;5081933;28;19993;-73
2021/09/18 06:26:55;;;;;;;;;;;;;;;-144.99;100.00;52399.19;5081601;28;20066;-74
2021/09/18 06:29:21;;;;;;;;;;;;;;;-144.99;100.00;52382.88;5076166;28;19983;-74
2021/09/18 06:31:49;;;;;;;;;;;;;;;-144.99;100.00;52378.78;5081615;28;20375;-75
2021/09/18 06:34:15;;;;;;;;;;;;;;;-144.99;100.00;52403.25;5078574;28;20067;-74
2021/09/18 06:36:42;;;;;;;;;;;;;;;-144.99;100.00;52431.78;5077498;28;19985;-75
2021/09/18 06:39:08;;;;;;;;;;;;;;;-144.99;100.00;52378.78;5079619;28;20424;-76
2021/09/18 06:41:34;;;;;;;;;;;;;;;-144.99;100.00;52376.75;5076088;28;19972;-76
2021/09/18 06:44:01;;;;;;;;;;;;;;;-144.99;100.00;52419.56;5077732;28;19977;-75
2021/09/18 06:46:27;;;;;;;;;;;;;;;-144.99;100.00;52384.91;5072879;28;20057;-76
2021/09/18 06:48:55;;;;;;;;;;;;;;;-144.99;100.00;52374.72;5080126;28;19992;-76
2021/09/18 06:51:22;;;;;;;;;;;;;;;-144.99;100.00;52407.31;5073325;28;20280;-76
2021/09/18 06:53:48;;;;;;;;;;;;;;;-144.99;100.00;52386.94;5077894;28;20556;-76
2021/09/18 06:56:15;;;;;;;;;;;;;;;-144.99;100.00;52372.69;5079274;28;19973;-76
2021/09/18 06:58:41;;;;;;;;;;;;;;;-144.99;100.00;52338.03;5077548;28;20315;-77
2021/09/18 07:01:07;;;;;;;;;;;;;;;-144.99;100.00;52386.94;5080497;28;20363;-71
2021/09/18 07:03:34;;;;;;;;;;;;;;;-144.99;100.00;52370.63;5076692;28;20442;-71
2021/09/18 07:06:05;;;;;;;;;;;;;;;-144.99;100.00;52338.03;5079869;28;20007;-72
2021/09/18 07:08:31;;;;;;;;;;;;;;;-144.99;100.00;52354.34;5080629;28;19995;-71
2021/09/18 07:10:58;;;;;;;;;;;;;;;-144.99;100.00;52376.75;5079675;28;20443;-71
2021/09/18 07:13:24;;;;;;;;;;;;;;;-144.99;100.00;52431.78;5078662;28;20540;-72
2021/09/18 07:15:52;;;;;;;;;;;;;;;-144.99;100.00;52370.63;5081854;28;19979;-73
2021/09/18 07:18:19;;;;;;;;;;;;;;;-144.99;100.00;52395.09;5077071;28;19991;-73
2021/09/18 07:20:45;;;;;;;;;;;;;;;-144.99;100.00;52380.84;5077382;28;20463;-72
2021/09/18 07:23:13;;;;;;;;;;;;;;;-144.99;100.00;52403.25;5079669;28;20347;-73
2021/09/18 07:25:39;;;;;;;;;;;;;;;-144.99;100.00;52399.19;5080013;28;19975;-75
2021/09/18 07:28:06;;;;;;;;;;;;;;;-144.99;100.00;52391.03;5080173;28;19992;-76
2021/09/18 07:30:33;;;;;;;;;;;;;;;-144.99;100.00;52372.69;5078852;28;20559;-75
2021/09/18 07:33:00;;;;;;;;;;;;;;;-144.99;100.00;52399.19;5081954;28;19981;-76
2021/09/18 07:35:26;;;;;;;;;;;;;;;-144.99;100.00;52378.78;5079555;28;20435;-75
2021/09/18 07:37:52;;;;;;;;;;;;;;;-144.99;100.00;52407.31;5079916;28;20624;-75
2021/09/18 07:40:20;;;;;;;;;;;;;;;-144.99;100.00;52364.53;5084943;28;19995;-76
2021/09/18 07:42:47;;;;;;;;;;;;;;;-144.99;100.00;52350.25;5082435;28;20356;-74
2021/09/18 07:45:13;;;;;;;;;;;;;;;-144.99;100.00;52340.06;5085613;28;20002;-74
2021/09/18 07:47:41;;;;;;;;;;;;;;;-144.99;100.00;52378.78;5081700;28;19992;-77
2021/09/18 07:50:08;;;;;;;;;;;;;;;-144.99;100.00;52378.78;5076776;28;19976;-77
2021/09/18 07:52:34;;;;;;;;;;;;;;;-144.99;100.00;52362.50;5083449;28;19972;-77
2021/09/18 07:55:00;;;;;;;;;;;;;;;-144.99;100.00;52374.72;5087915;28;19975;-78
2021/09/18 07:57:28;;;;;;;;;;;;;;;-144.99;99.61;52374.72;5089494;28;20451;-75
2021/09/18 07:59:54;;;;;;;;;;;;;;;-144.99;99.64;52386.94;5086592;28;19995;-74
2021/09/18 08:02:21;;;;;;;;;;;;;;;-144.99;99.53;52354.34;5089989;28;20048;-74
2021/09/18 08:04:47;;;;;;;;;;;;;;;-144.99;97.55;52346.19;5083943;28;20075;-74
2021/09/18 08:07:15;;;;;;;;;;;;;;;-144.99;97.46;52397.13;5082975;28;19998;-74
2021/09/18 08:09:42;;;;;;;;;;;;;;;-144.99;97.03;52336.00;5080878;28;19977;-74
2021/09/18 08:12:08;;;;;;;;;;;;;;;-144.99;96.64;52370.63;5086608;28;19979;-74
2021/09/18 08:14:36;;;;;;;;;;;;;;;-144.99;96.12;52344.16;5089515;28;19973;-74
2021/09/18 08:17:02;;;;;;;;;;;;;;;-144.99;95.22;52378.78;5087478;28;20376;-73
2021/09/18 08:19:29;;;;;;;;;;;;;;;-144.99;94.37;52358.41;5086370;28;20359;-76
2021/09/18 08:21:55;;;;;;;;;;;;;;;-144.99;93.89;52354.34;5082633;28;20016;-78
2021/09/18 08:24:22;;;;;;;;;;;;;;;-144.99;92.61;52362.50;5086794;28;19986;-75
2021/09/18 08:26:48;;;;;;;;;;;;;;;-144.99;91.23;52395.09;5085680;28;20571;-75
2021/09/18 08:29:15;;;;;;;;;;;;;;;-144.99;90.37;52342.09;5082911;28;19977;-77
2021/09/18 08:31:43;;;;;;;;;;;;;;;-144.99;90.53;52399.19;5080037;28;19972;-76
2021/09/18 08:34:09;;;;;;;;;;;;;;;-144.99;89.71;52325.81;5086369;28;19971;-76
2021/09/18 08:36:36;;;;;;;;;;;;;;;-144.99;89.74;52374.72;5083246;28;19979;-74
2021/09/18 08:39:03;;;;;;;;;;;;;;;-144.99;89.28;52350.25;5084140;28;20381;-75
2021/09/18 08:41:30;;;;;;;;;;;;;;;-144.99;89.45;52321.72;5084687;28;19981;-75
2021/09/18 08:43:57;;;;;;;;;;;;;;;-144.99;89.09;52333.94;5083904;28;20422;-75
2021/09/18 08:46:25;;;;;;;;;;;;;;;-144.99;89.16;52333.94;5086499;28;20073;-75
2021/09/18 08:48:53;;;;;;;;;;;;;;;-144.99;88.45;52362.50;5082348;28;19972;-77
2021/09/18 08:51:20;;;;;;;;;;;;;;;-144.99;87.85;52378.78;5084834;28;20469;-76
2021/09/18 08:53:46;;;;;;;;;;;;;;;-144.99;88.22;52325.81;5085580;28;19992;-75
2021/09/18 08:56:16;;;;;;;;;;;;;;;-144.99;88.44;52309.50;5085471;28;20072;-75
2021/09/18 08:58:42;;;;;;;;;;;;;;;-144.99;88.33;52378.78;5082791;28;20102;-76
2021/09/18 09:01:09;;;;;;;;;;;;;;;-144.99;87.89;52329.88;5084774;28;19980;-77
2021/09/18 09:03:36;;;;;;;;;;;;;;;-144.99;87.06;52317.66;5079538;28;20034;-77
2021/09/18 09:06:08;;;;;;;;;;;;;;;-144.99;85.91;52297.25;5081908;28;19984;-77
2021/09/18 09:08:37;;;;;;;;;;;;;;;-144.99;85.59;52338.03;5080937;28;19988;-73
2021/09/18 09:11:14;;;;;;;;;;;;;;;-144.99;84.19;52338.03;5081925;28;20005;-76
2021/09/18 09:13:52;;;;;;;;;;;;;;;-144.99;83.01;52317.66;5084907;28;19949;-75
2021/09/18 09:16:19;;;;;;;;;;;;;;;-144.99;83.17;52362.50;5083949;28;20069;-76
2021/09/18 09:18:46;;;;;;;;;;;;;;;-144.99;82.02;52317.66;5078385;28;19991;-75
2021/09/18 09:21:16;;;;;;;;;;;;;;;-144.99;82.50;52362.50;5083325;28;19990;-76
2021/09/18 09:23:43;;;;;;;;;;;;;;;-144.99;83.14;52346.19;5083843;28;19972;-76
2021/09/18 09:26:10;;;;;;;;;;;;;;;-144.99;83.62;52348.22;5083553;28;19975;-77
2021/09/18 09:28:37;;;;;;;;;;;;;;;-144.99;84.56;52333.94;5081194;28;19992;-75
2021/09/18 09:31:11;;;;;;;;;;;;;;;-144.99;84.12;52297.25;5079223;28;19979;-74
2021/09/18 09:33:41;;;;;;;;;;;;;;;-144.99;84.49;52354.34;5081758;28;19970;-72
2021/09/18 09:36:16;;;;;;;;;;;;;;;-144.99;83.81;52354.34;5077449;28;19973;-73
2021/09/18 09:38:51;;;;;;;;;;;;;;;-144.99;83.96;52374.72;5080081;28;19972;-75
2021/09/18 09:41:26;;;;;;;;;;;;;;;-144.99;83.92;52346.19;5083796;28;19998;-76
2021/09/18 09:43:53;;;;;;;;;;;;;;;-144.99;84.68;52399.19;5080682;28;20001;-75
2021/09/18 09:46:19;;;;;;;;;;;;;;;-144.99;84.80;52370.63;5081866;28;20451;-76
2021/09/18 09:48:46;;;;;;;;;;;;;;;-144.99;85.81;52325.81;5081648;28;19991;-73
2021/09/18 09:51:12;;;;;;;;;;;;;;;-144.99;87.07;52342.09;5081146;28;19972;-77
2021/09/18 09:53:40;;;;;;;;;;;;;;;-144.99;87.33;52378.78;5080751;28;19974;-74
2021/09/18 09:56:21;;;;;;;;;;;;;;;-144.99;87.48;52370.63;5079595;28;20063;-74
2021/09/18 09:58:51;;;;;;;;;;;;;;;-144.99;87.61;52378.78;5080861;28;20033;-76
2021/09/18 10:01:18;;;;;;;;;;;;;;;-144.99;87.16;52333.94;5080638;28;19993;-74
2021/09/18 10:03:45;;;;;;;;;;;;;;;-144.99;87.70;52362.50;5082793;28;20356;-78
2021/09/18 10:06:13;;;;;;;;;;;;;;;-144.99;86.88;52366.56;5081670;28;20062;-76
2021/09/18 10:08:45;;;;;;;;;;;;;;;-144.99;85.69;52336.00;5079946;28;20475;-75
2021/09/18 10:11:11;;;;;;;;;;;;;;;-144.99;84.11;52309.50;5080083;28;20090;-75
2021/09/18 10:13:40;;;;;;;;;;;;;;;-144.99;82.83;52344.16;5080625;28;19971;-76
2021/09/18 10:16:07;;;;;;;;;;;;;;;-144.99;82.73;52358.41;5076493;28;19977;-75
2021/09/18 10:18:36;;;;;;;;;;;;;;;-144.99;83.31;52358.41;5077550;28;20000;-73
2021/09/18 10:23:48;;;;;;;;;;;;;;;-144.99;84.40;52378.78;5079373;28;20289;-73
2021/09/18 10:26:15;;;;;;;;;;;;;;;-144.99;85.58;52368.59;5083145;28;19968;-75
2021/09/18 10:28:42;;;;;;;;;;;;;;;-144.99;86.77;52338.03;5079439;28;20076;-77
2021/09/18 10:31:12;;;;;;;;;;;;;;;-144.99;85.82;52386.94;5082464;28;19974;-76
2021/09/18 10:33:39;;;;;;;;;;;;;;;-144.99;86.09;52356.38;5079690;28;19980;-76
2021/09/18 10:36:07;;;;;;;;;;;;;;;-144.99;85.72;52384.91;5079713;28;19966;-76
2021/09/18 10:38:34;;;;;;;;;;;;;;;-144.99;85.96;52386.94;5078840;28;20003;-73
2021/09/18 10:41:04;;;;;;;;;;;;;;;-144.99;86.33;52370.63;5078042;28;20016;-75
2021/09/18 10:43:31;;;;;;;;;;;;;;;-144.99;86.47;52401.22;5079048;28;19975;-76
2021/09/18 10:45:58;;;;;;;;;;;;;;;-144.99;86.70;52340.06;5081365;28;19984;-75
2021/09/18 10:48:35;;;;;;;;;;;;;;;-144.99;86.23;52382.88;5080544;28;19992;-74
2021/09/18 10:51:01;;;;;;;;;;;;;;;-144.99;86.90;52358.41;5076017;28;19983;-76
2021/09/18 10:53:28;;;;;;;;;;;;;;;-144.99;87.71;52407.31;5080674;28;20066;-74
2021/09/18 10:55:55;;;;;;;;;;;;;;;-144.99;88.04;52366.56;5075920;28;20009;-74
2021/09/18 10:58:24;;;;;;;;;;;;;;;-144.99;88.22;52354.34;5082442;28;19998;-75
2021/09/18 11:00:52;;;;;;;;;;;;;;;-144.99;88.15;52391.03;5074868;28;20079;-75
2021/09/18 11:03:39;;;;;;;;;;;;;;;-144.99;88.19;52354.34;5076746;28;19992;-75
2021/09/18 11:06:05;;;;;;;;;;;;;;;-144.99;88.11;52382.88;5078524;28;19976;-73
2021/09/18 11:08:35;;;;;;;;;;;;;;;-144.99;87.71;52378.78;5070342;28;19996;-75
2021/09/18 11:11:04;;;;;;;;;;;;;;;-144.99;87.83;52397.13;5073477;28;20000;-76
2021/09/18 11:13:36;;;;;;;;;;;;;;;-144.99;86.92;52403.25;5082448;28;19980;-75
2021/09/18 11:16:05;;;;;;;;;;;;;;;-144.99;86.86;52370.63;5083466;28;19983;-75
2021/09/18 11:18:34;;;;;;;;;;;;;;;-144.99;86.96;52427.72;5073526;28;19996;-77
2021/09/18 11:21:03;;;;;;;;;;;;;;;-144.99;87.02;52338.03;5076856;28;20090;-76
2021/09/18 11:23:33;;;;;;;;;;;;;;;-144.99;86.69;52391.03;5080759;28;20021;-73
2021/09/18 11:25:59;;;;;;;;;;;;;;;-144.99;86.52;52360.44;5071046;28;19987;-75
2021/09/18 11:28:33;;;;;;;;;;;;;;;-144.99;85.44;52388.97;5081653;28;19924;-73
2021/09/18 11:31:01;;;;;;;;;;;;;;;-144.99;85.36;52388.97;4371478;28;10000725;-76
2021/09/18 11:33:27;;;;;;;;;;;;;;;-144.99;85.06;52358.41;5079950;28;20278;-75
2021/09/18 11:35:55;;;;;;;;;;;;;;;-144.99;84.43;52376.75;5081234;28;19979;-75
2021/09/18 11:38:23;;;;;;;;;;;;;;;-144.99;84.32;52364.53;5080898;28;20011;-73
2021/09/18 11:40:49;;;;;;;;;;;;;;;-144.99;83.36;52386.94;5081673;28;20077;-77
2021/09/18 11:43:16;;;;;;;;;;;;;;;-144.99;83.41;52378.78;5082323;28;19995;-77
2021/09/18 11:45:42;;;;;;;;;;;;;;;-144.99;83.45;52305.41;5082658;28;19983;-72
2021/09/18 11:48:17;;;;;;;;;;;;;;;-144.99;81.82;52362.50;5081652;28;20044;-74
2021/09/18 11:50:46;;;;;;;;;;;;;;;-144.99;81.87;52350.25;5081916;28;20057;-72
2021/09/18 11:53:13;;;;;;;;;;;;;;;-144.99;80.90;52376.75;5079093;28;19978;-74
2021/09/18 11:55:40;;;;;;;;;;;;;;;-144.99;81.42;52356.38;5082616;28;20145;-76
2021/09/18 11:58:09;;;;;;;;;;;;;;;-144.99;81.30;52325.81;5083551;28;20002;-75
2021/09/18 12:00:36;;;;;;;;;;;;;;;-144.99;80.42;52329.88;5082087;28;20005;-74
2021/09/18 12:03:02;;;;;;;;;;;;;;;-144.99;80.61;52362.50;5076071;28;20062;-75
2021/09/18 12:05:30;;;;;;;;;;;;;;;-144.99;80.43;52386.94;5070562;28;19986;-75
2021/09/18 12:07:57;;;;;;;;;;;;;;;-144.99;80.69;52370.63;5070298;28;19995;-74
2021/09/18 12:10:24;;;;;;;;;;;;;;;-144.99;81.41;52370.63;5081649;28;19976;-74
2021/09/18 12:12:55;;;;;;;;;;;;;;;-144.99;80.95;52362.50;5082348;28;19990;-74
2021/09/18 12:15:32;;;;;;;;;;;;;;;-144.99;79.90;52333.94;5081414;28;20153;-73
2021/09/18 12:17:59;;;;;;;;;;;;;;;-144.99;80.51;52360.44;5085465;22;20003;-73
2021/09/18 12:20:25;;;;;;;;;;;;;;;-144.99;80.57;52382.88;5037031;28;20418;-76
2021/09/18 12:22:53;;;;;;;;;;;;;;;-144.99;79.35;52317.66;5037407;28;20534;-74
2021/09/18 12:25:24;;;;;;;;;;;;;;;-144.99;79.72;52354.34;5037257;28;20006;-75
2021/09/18 12:27:54;;;;;;;;;;;;;;;-144.99;79.32;52372.69;5040575;28;20127;-75